createdAt,value
2022-09-04T00:00:08.720Z,100953.69
2022-09-04T00:03:06.380Z,100949.91
2022-09-04T00:06:01.001Z,100950.78
2022-09-04T00:08:47.155Z,100944.91
2022-09-04T00:11:19.018Z,100955.44
2022-09-04T00:13:55.353Z,100940.81
2022-09-04T00:16:37.493Z,100952.41
2022-09-04T00:19:26.812Z,100946.69
2022-09-04T00:22:02.059Z,100954.00
2022-09-04T00:24:38.456Z,100959.37
2022-09-04T00:27:27.154Z,100960.88
2022-09-04T00:30:13.821Z,100967.66
2022-09-04T00:32:51.752Z,100958.22
2022-09-04T00:35:37.976Z,100960.66
2022-09-04T00:38:13.973Z,100963.91
2022-09-04T00:41:03.970Z,100961.34
2022-09-04T00:44:01.315Z,100971.25
2022-09-04T00:46:52.173Z,100966.84
2022-09-04T00:49:32.138Z,100960.22
2022-09-04T00:52:05.881Z,100964.12
2022-09-04T00:54:58.840Z,100967.84
2022-09-04T00:57:59.575Z,100968.06
2022-09-04T01:00:28.995Z,100971.00
2022-09-04T01:03:23.903Z,100971.09
2022-09-04T01:06:12.507Z,100977.03
2022-09-04T01:09:22.392Z,100977.22
2022-09-04T01:11:53.143Z,100971.47
2022-09-04T01:14:29.647Z,100969.37
2022-09-04T01:17:09.478Z,100968.75
2022-09-04T01:19:40.029Z,100967.44
2022-09-04T01:22:46.668Z,100965.97
2022-09-04T01:25:20.049Z,100977.28
2022-09-04T01:28:13.612Z,100973.41
2022-09-04T01:30:52.188Z,100980.16
2022-09-04T01:33:34.665Z,100974.22
2022-09-04T01:36:28.073Z,100976.47
2022-09-04T01:38:58.705Z,100974.38
2022-09-04T01:41:29.386Z,100977.91
2022-09-04T01:43:57.470Z,100978.44
2022-09-04T01:46:44.013Z,100987.31
2022-09-04T01:49:27.055Z,100976.47
2022-09-04T01:52:03.218Z,100978.50
2022-09-04T01:54:35.283Z,100979.97
2022-09-04T01:57:15.086Z,100976.84
2022-09-04T02:00:04.700Z,100978.25
2022-09-04T02:03:02.393Z,100974.22
2022-09-04T02:05:48.465Z,100973.88
2022-09-04T02:08:28.431Z,100977.00
2022-09-04T02:11:05.259Z,100975.78
2022-09-04T02:14:10.775Z,100974.69
2022-09-04T02:16:56.440Z,100982.97
2022-09-04T02:19:44.581Z,100978.91
2022-09-04T02:22:41.998Z,100988.72
2022-09-04T02:25:30.607Z,100982.87
2022-09-04T02:28:16.654Z,100981.44
2022-09-04T02:30:54.310Z,100978.31
2022-09-04T02:33:29.594Z,100979.63
2022-09-04T02:36:14.753Z,100976.75
2022-09-04T02:39:10.377Z,100982.19
2022-09-04T02:41:58.321Z,100987.47
2022-09-04T02:44:32.324Z,100979.66
2022-09-04T02:47:21.823Z,100982.50
2022-09-04T02:50:11.077Z,100983.94
2022-09-04T02:53:18.429Z,100981.53
2022-09-04T02:56:01.808Z,100974.31
2022-09-04T02:58:42.358Z,100986.31
2022-09-04T03:01:22.474Z,100974.69
2022-09-04T03:04:11.125Z,100979.37
2022-09-04T03:06:55.103Z,100978.31
2022-09-04T03:09:36.481Z,100981.81
2022-09-04T03:12:29.559Z,100988.72
2022-09-04T03:15:08.246Z,100981.50
2022-09-04T03:17:46.602Z,100986.19
2022-09-04T03:20:26.738Z,100985.94
2022-09-04T03:23:12.012Z,100986.50
2022-09-04T03:26:01.100Z,100989.03
2022-09-04T03:28:54.798Z,100990.97
2022-09-04T03:31:54.555Z,100990.63
2022-09-04T03:34:48.945Z,100998.25
2022-09-04T03:38:14.101Z,101001.59
2022-09-04T03:40:53.924Z,101006.06
2022-09-04T03:43:27.874Z,101007.44
2022-09-04T03:46:05.837Z,101001.34
2022-09-04T03:49:07.829Z,101001.34
2022-09-04T03:51:38.883Z,101006.03
2022-09-04T03:54:12.558Z,101007.06
2022-09-04T03:56:43.446Z,101006.50
2022-09-04T03:59:14.148Z,101007.44
2022-09-04T04:01:42.397Z,101010.84
2022-09-04T04:04:36.239Z,101022.63
2022-09-04T04:07:08.651Z,101016.19
2022-09-04T04:09:48.569Z,101022.22
2022-09-04T04:12:16.119Z,101019.41
2022-09-04T04:14:44.038Z,101021.88
2022-09-04T04:17:31.554Z,101015.66
2022-09-04T04:20:17.892Z,101020.94
2022-09-04T04:22:56.715Z,101013.00
2022-09-04T04:25:33.678Z,101015.91
2022-09-04T04:28:39.139Z,101025.47
2022-09-04T04:31:20.276Z,101026.19
2022-09-04T04:34:10.223Z,101027.25
2022-09-04T04:37:31.902Z,101031.34
2022-09-04T04:40:15.115Z,101032.63
2022-09-04T04:43:03.742Z,101036.13
2022-09-04T04:45:51.674Z,101038.59
2022-09-04T04:48:38.631Z,101022.25
2022-09-04T04:51:18.643Z,101033.41
2022-09-04T04:53:58.558Z,101031.75
2022-09-04T04:56:34.090Z,101040.00
2022-09-04T04:59:26.971Z,101039.19
2022-09-04T05:02:04.858Z,101047.13
2022-09-04T05:04:50.958Z,101041.25
2022-09-04T05:07:35.604Z,101049.44
2022-09-04T05:10:30.312Z,101057.41
2022-09-04T05:13:09.468Z,101059.69
2022-09-04T05:16:10.293Z,101058.22
2022-09-04T05:18:58.155Z,101064.09
2022-09-04T05:21:44.625Z,101064.25
2022-09-04T05:24:26.183Z,101063.72
2022-09-04T05:27:13.032Z,101070.34
2022-09-04T05:29:52.719Z,101080.22
2022-09-04T05:32:30.747Z,101083.06
2022-09-04T05:35:17.315Z,101092.56
2022-09-04T05:38:02.363Z,101083.81
2022-09-04T05:40:44.211Z,101087.00
2022-09-04T05:43:48.215Z,101084.81
2022-09-04T05:46:19.002Z,101093.19
2022-09-04T05:49:24.272Z,101089.66
2022-09-04T05:52:21.244Z,101089.50
2022-09-04T05:55:17.026Z,101088.19
2022-09-04T05:58:11.034Z,101093.22
2022-09-04T06:01:03.416Z,101093.44
2022-09-04T06:04:13.226Z,101099.00
2022-09-04T06:06:51.576Z,101107.03
2022-09-04T06:09:48.637Z,101106.38
2022-09-04T06:13:03.957Z,101104.16
2022-09-04T06:15:44.886Z,101103.25
2022-09-04T06:18:37.930Z,101097.87
2022-09-04T06:21:40.398Z,101103.53
2022-09-04T06:24:30.808Z,101105.25
2022-09-04T06:27:01.504Z,101109.09
2022-09-04T06:29:44.497Z,101109.84
2022-09-04T06:32:35.843Z,101103.94
2022-09-04T06:35:32.002Z,101103.75
2022-09-04T06:38:25.417Z,101102.78
2022-09-04T06:41:08.694Z,101107.75
2022-09-04T06:44:20.746Z,101103.50
2022-09-04T06:47:06.338Z,101109.09
2022-09-04T06:50:06.111Z,101117.12
2022-09-04T06:52:55.996Z,101119.06
2022-09-04T06:55:45.855Z,101124.94
2022-09-04T06:58:25.531Z,101124.28
2022-09-04T07:01:09.027Z,101124.09
2022-09-04T07:04:07.706Z,101130.12
2022-09-04T07:06:58.614Z,101122.78
2022-09-04T07:09:30.983Z,101123.91
2022-09-04T07:12:08.087Z,101121.87
2022-09-04T07:15:22.810Z,101122.56
2022-09-04T07:17:53.489Z,101127.47
2022-09-04T07:20:55.616Z,101124.97
2022-09-04T07:23:45.782Z,101121.78
2022-09-04T07:26:26.095Z,101120.31
2022-09-04T07:29:31.783Z,101126.50
2022-09-04T07:32:15.526Z,101120.63
2022-09-04T07:35:00.797Z,101122.56
2022-09-04T07:37:39.999Z,101129.72
2022-09-04T07:40:17.353Z,101128.37
2022-09-04T07:43:13.999Z,101127.81
2022-09-04T07:45:47.652Z,101129.88
2022-09-04T07:48:18.475Z,101130.03
2022-09-04T07:51:07.258Z,101137.94
2022-09-04T07:53:43.948Z,101139.34
2022-09-04T07:56:35.281Z,101130.50
2022-09-04T07:59:25.336Z,101128.28
2022-09-04T08:01:59.608Z,101130.03
2022-09-04T08:05:01.732Z,101137.56
2022-09-04T08:07:34.343Z,101137.81
2022-09-04T08:10:23.680Z,101141.47
2022-09-04T08:13:14.283Z,101144.22
2022-09-04T08:16:06.308Z,101141.03
2022-09-04T08:18:55.400Z,101139.16
2022-09-04T08:21:32.301Z,101143.16
2022-09-04T08:24:41.353Z,101148.81
2022-09-04T08:27:09.451Z,101149.91
2022-09-04T08:29:40.277Z,101152.41
2022-09-04T08:32:28.569Z,101159.72
2022-09-04T08:35:18.458Z,101152.06
2022-09-04T08:38:20.877Z,101150.41
2022-09-04T08:41:03.819Z,101145.19
2022-09-04T08:43:57.061Z,101139.66
2022-09-04T08:47:02.624Z,101131.91
2022-09-04T08:49:54.116Z,101136.03
2022-09-04T08:52:52.707Z,101135.84
2022-09-04T08:55:35.668Z,101133.91
2022-09-04T08:58:34.573Z,101134.12
2022-09-04T09:01:08.426Z,101140.84
2022-09-04T09:03:58.126Z,101137.28
2022-09-04T09:06:42.188Z,101125.19
2022-09-04T09:10:01.758Z,101134.59
2022-09-04T09:12:54.511Z,101134.34
2022-09-04T09:16:06.410Z,101138.37
2022-09-04T09:18:41.518Z,101132.81
2022-09-04T09:21:11.115Z,101136.56
2022-09-04T09:24:14.295Z,101137.19
2022-09-04T09:27:07.723Z,101137.69
2022-09-04T09:30:08.056Z,101131.84
2022-09-04T09:32:57.662Z,101140.84
2022-09-04T09:36:16.215Z,101136.00
2022-09-04T09:39:10.117Z,101133.47
2022-09-04T09:41:46.879Z,101136.75
2022-09-04T09:44:42.764Z,101135.59
2022-09-04T09:47:19.226Z,101131.84
2022-09-04T09:50:20.852Z,101127.19
2022-09-04T09:53:16.636Z,101127.25
2022-09-04T09:55:57.277Z,101130.22
2022-09-04T09:58:33.875Z,101130.19
2022-09-04T10:01:25.993Z,101126.13
2022-09-04T10:04:12.388Z,101123.59
2022-09-04T10:07:19.885Z,101120.03
2022-09-04T10:10:06.433Z,101121.56
2022-09-04T10:12:34.065Z,101116.94
2022-09-04T10:15:02.001Z,101133.41
2022-09-04T10:17:52.430Z,101130.59
2022-09-04T10:20:42.257Z,101134.87
2022-09-04T10:23:43.906Z,101136.28
2022-09-04T10:26:39.634Z,101134.22
2022-09-04T10:29:29.111Z,101128.69
2022-09-04T10:32:31.897Z,101122.84
2022-09-04T10:35:22.154Z,101120.34
2022-09-04T10:38:09.023Z,101120.41
2022-09-04T10:41:04.315Z,101120.78
2022-09-04T10:43:51.970Z,101134.34
2022-09-04T10:46:27.509Z,101129.63
2022-09-04T10:49:17.327Z,101123.00
2022-09-04T10:51:57.212Z,101115.84
2022-09-04T10:54:35.329Z,101115.00
2022-09-04T10:57:21.841Z,101118.22
2022-09-04T11:00:06.748Z,101117.03
2022-09-04T11:02:53.603Z,101108.37
2022-09-04T11:05:22.334Z,101115.19
2022-09-04T11:08:19.774Z,101116.53
2022-09-04T11:11:19.312Z,101114.44
2022-09-04T11:14:06.346Z,101107.66
2022-09-04T11:16:57.260Z,101103.88
2022-09-04T11:19:48.171Z,101102.69
2022-09-04T11:22:35.049Z,101101.91
2022-09-04T11:25:40.021Z,101108.00
2022-09-04T11:28:17.155Z,101110.97
2022-09-04T11:31:11.800Z,101112.66
2022-09-04T11:34:15.122Z,101109.62
2022-09-04T11:36:44.177Z,101111.66
2022-09-04T11:39:52.922Z,101106.09
2022-09-04T11:42:26.721Z,101102.75
2022-09-04T11:45:30.386Z,101100.97
2022-09-04T11:48:37.924Z,101098.88
2022-09-04T11:51:28.879Z,101095.66
2022-09-04T11:54:23.594Z,101100.75
2022-09-04T11:57:07.649Z,101096.88
2022-09-04T11:59:48.531Z,101099.22
2022-09-04T12:02:25.411Z,101095.25
2022-09-04T12:05:43.258Z,101094.66
2022-09-04T12:08:42.048Z,101091.28
2022-09-04T12:11:19.322Z,101094.50
2022-09-04T12:14:02.859Z,101083.75
2022-09-04T12:16:44.260Z,101084.50
2022-09-04T12:19:39.979Z,101079.09
2022-09-04T12:22:14.885Z,101073.34
2022-09-04T12:25:06.778Z,101076.34
2022-09-04T12:28:18.566Z,101081.97
2022-09-04T12:30:58.697Z,101077.75
2022-09-04T12:33:40.587Z,101075.75
2022-09-04T12:36:38.418Z,101069.16
2022-09-04T12:39:25.250Z,101059.41
2022-09-04T12:42:01.480Z,101071.88
2022-09-04T12:44:58.739Z,101065.09
2022-09-04T12:47:43.295Z,101064.84
2022-09-04T12:50:34.555Z,101062.03
2022-09-04T12:53:32.282Z,101073.75
2022-09-04T12:56:42.425Z,101073.00
2022-09-04T12:59:19.746Z,101065.59
2022-09-04T13:02:24.148Z,101061.00
2022-09-04T13:05:07.213Z,101067.87
2022-09-04T13:07:48.359Z,101065.59
2022-09-04T13:10:23.711Z,101065.47
2022-09-04T13:13:10.344Z,101060.28
2022-09-04T13:15:45.899Z,101065.03
2022-09-04T13:18:21.320Z,101066.91
2022-09-04T13:20:55.042Z,101048.56
2022-09-04T13:23:36.938Z,101053.59
2022-09-04T13:26:20.969Z,101051.94
2022-09-04T13:29:08.525Z,101056.28
2022-09-04T13:31:59.485Z,101057.81
2022-09-04T13:34:29.190Z,101055.50
2022-09-04T13:37:21.314Z,101048.81
2022-09-04T13:40:21.447Z,101051.50
2022-09-04T13:43:03.481Z,101051.06
2022-09-04T13:45:41.125Z,101046.06
2022-09-04T13:48:37.584Z,101042.75
2022-09-04T13:51:23.203Z,101035.38
2022-09-04T13:54:02.785Z,101044.47
2022-09-04T13:56:43.691Z,101048.25
2022-09-04T13:59:16.259Z,101049.97
2022-09-04T14:01:49.377Z,101049.91
2022-09-04T14:04:33.546Z,101047.63
2022-09-04T14:07:10.750Z,101046.34
2022-09-04T14:09:48.492Z,101050.03
2022-09-04T14:12:40.917Z,101051.69
2022-09-04T14:15:24.271Z,101055.78
2022-09-04T14:18:04.351Z,101053.78
2022-09-04T14:20:42.602Z,101053.25
2022-09-04T14:23:36.721Z,101049.91
2022-09-04T14:26:10.824Z,101050.19
2022-09-04T14:28:47.389Z,101053.22
2022-09-04T14:31:40.515Z,101048.75
2022-09-04T14:35:02.492Z,101036.69
2022-09-04T14:37:49.191Z,101043.72
2022-09-04T14:40:25.412Z,101046.84
2022-09-04T14:42:58.374Z,101036.87
2022-09-04T14:45:26.101Z,101040.63
2022-09-04T14:48:00.083Z,101045.31
2022-09-04T14:50:34.304Z,101048.56
2022-09-04T14:53:08.660Z,101039.94
2022-09-04T14:55:43.064Z,101046.56
2022-09-04T14:58:23.436Z,101047.25
2022-09-04T15:01:08.767Z,101053.03
2022-09-04T15:03:56.424Z,101054.13
2022-09-04T15:07:10.947Z,101057.75
2022-09-04T15:09:44.769Z,101056.12
2022-09-04T15:12:24.752Z,101067.59
2022-09-04T15:15:07.265Z,101068.22
2022-09-04T15:17:39.464Z,101071.59
2022-09-04T15:20:17.917Z,101072.75
2022-09-04T15:22:52.234Z,101070.84
2022-09-04T15:25:59.753Z,101072.66
2022-09-04T15:28:47.803Z,101074.59
2022-09-04T15:31:20.367Z,101079.44
2022-09-04T15:34:03.868Z,101077.34
2022-09-04T15:36:32.792Z,101077.09
2022-09-04T15:39:03.374Z,101081.00
2022-09-04T15:41:47.526Z,101087.47
2022-09-04T15:44:30.327Z,101086.62
2022-09-04T15:47:39.196Z,101089.03
2022-09-04T15:50:28.022Z,101083.56
2022-09-04T15:53:10.044Z,101080.50
2022-09-04T15:55:48.500Z,101083.78
2022-09-04T15:58:19.931Z,101075.41
2022-09-04T16:01:06.446Z,101075.00
2022-09-04T16:04:03.322Z,101068.78
2022-09-04T16:06:42.579Z,101072.66
2022-09-04T16:09:23.456Z,101075.03
2022-09-04T16:12:10.744Z,101077.91
2022-09-04T16:14:44.742Z,101083.53
2022-09-04T16:17:39.086Z,101077.31
2022-09-04T16:20:10.407Z,101086.97
2022-09-04T16:22:46.466Z,101076.12
2022-09-04T16:25:29.899Z,101079.56
2022-09-04T16:28:33.036Z,101076.91
2022-09-04T16:31:12.922Z,101079.00
2022-09-04T16:33:51.142Z,101081.81
2022-09-04T16:36:40.802Z,101084.91
2022-09-04T16:39:25.466Z,101094.87
2022-09-04T16:42:12.494Z,101090.72
2022-09-04T16:44:45.630Z,101090.25
2022-09-04T16:47:32.176Z,101090.03
2022-09-04T16:50:13.395Z,101093.69
2022-09-04T16:52:41.377Z,101091.34
2022-09-04T16:55:24.994Z,101096.69
2022-09-04T16:58:40.189Z,101097.00
2022-09-04T17:01:15.652Z,101090.16
2022-09-04T17:04:13.231Z,101086.72
2022-09-04T17:07:00.207Z,101085.56
2022-09-04T17:09:46.410Z,101090.91
2022-09-04T17:12:21.186Z,101092.34
2022-09-04T17:15:00.951Z,101090.66
2022-09-04T17:17:30.672Z,101098.53
2022-09-04T17:20:12.388Z,101091.50
2022-09-04T17:28:59.142Z,101103.31
2022-09-04T17:29:17.724Z,101106.75
2022-09-04T17:32:51.512Z,101102.22
2022-09-04T17:40:32.917Z,101112.19
2022-09-04T17:40:47.770Z,101111.72
2022-09-04T17:41:38.210Z,101116.41
2022-09-04T17:44:17.627Z,101121.47
2022-09-04T17:47:27.596Z,101121.41
2022-09-04T17:49:56.765Z,101125.94
2022-09-04T17:52:27.115Z,101127.84
2022-09-04T17:55:08.469Z,101130.69
2022-09-04T17:57:51.237Z,101135.22
2022-09-04T18:00:32.741Z,101141.31
2022-09-04T18:03:24.813Z,101147.69
2022-09-04T18:06:02.000Z,101139.38
2022-09-04T18:08:30.310Z,101142.97
2022-09-04T18:11:13.228Z,101154.28
2022-09-04T18:14:00.906Z,101155.47
2022-09-04T18:16:42.365Z,101160.91
2022-09-04T18:19:38.314Z,101163.25
2022-09-04T18:22:33.123Z,101175.59
2022-09-04T18:25:16.459Z,101180.09
2022-09-04T18:28:11.350Z,101170.84
2022-09-04T18:37:09.838Z,101174.41
2022-09-04T18:37:17.025Z,101179.16
2022-09-04T18:37:17.998Z,101172.59
2022-09-04T18:39:50.788Z,101182.53
2022-09-04T18:50:28.032Z,101192.06
2022-09-04T18:50:28.267Z,101182.34
2022-09-04T18:50:36.449Z,101194.47
2022-09-04T18:51:29.982Z,101194.25
2022-09-04T18:54:08.782Z,101197.25
2022-09-04T18:56:50.681Z,101190.56
2022-09-04T18:59:28.294Z,101199.31
2022-09-04T19:01:58.164Z,101194.91
2022-09-04T19:04:35.983Z,101194.72
2022-09-04T19:07:12.049Z,101198.53
2022-09-04T19:10:08.234Z,101204.22
2022-09-04T19:12:59.092Z,101204.34
2022-09-04T19:15:55.863Z,101200.38
2022-09-04T19:18:43.968Z,101199.13
2022-09-04T19:21:26.019Z,101195.69
2022-09-04T19:24:15.975Z,101192.59
2022-09-04T19:26:55.317Z,101199.44
2022-09-04T19:29:50.600Z,101207.34
2022-09-04T19:32:27.648Z,101203.44
2022-09-04T19:35:04.985Z,101207.06
2022-09-04T19:40:16.584Z,101203.53
2022-09-04T19:46:02.280Z,101211.50
2022-09-04T19:46:13.883Z,101208.34
2022-09-04T19:46:58.122Z,101211.84
2022-09-04T19:52:25.474Z,101216.50
2022-09-04T19:53:24.124Z,101214.50
2022-09-04T19:56:02.802Z,101216.09
2022-09-04T19:58:43.976Z,101211.78
2022-09-04T20:01:16.357Z,101215.78
2022-09-04T20:03:55.334Z,101214.06
2022-09-04T20:06:34.610Z,101213.00
2022-09-04T20:09:29.510Z,101216.75
2022-09-04T20:12:21.753Z,101223.50
2022-09-04T20:15:00.469Z,101229.59
2022-09-04T20:17:45.145Z,101226.78
2022-09-04T20:20:23.263Z,101234.75
2022-09-04T20:23:02.253Z,101228.22
2022-09-04T20:26:36.412Z,101233.25
2022-09-04T20:30:01.961Z,101238.06
2022-09-04T20:32:37.425Z,101242.44
2022-09-04T20:35:32.609Z,101238.28
2022-09-04T20:38:23.820Z,101243.91
2022-09-04T20:41:19.948Z,101253.13
2022-09-04T20:43:58.100Z,101252.94
2022-09-04T20:50:56.428Z,101246.34
2022-09-04T20:53:04.700Z,101252.03
2022-09-04T20:53:26.316Z,101247.72
2022-09-04T20:59:45.296Z,101254.81
2022-09-04T21:03:18.784Z,101249.50
2022-09-04T21:03:22.838Z,101248.25
2022-09-04T21:06:16.577Z,101252.62
2022-09-04T21:09:04.256Z,101258.13
2022-09-04T21:11:42.023Z,101254.81
2022-09-04T21:14:16.867Z,101251.53
2022-09-04T21:17:33.557Z,101245.41
2022-09-04T21:20:51.879Z,101251.63
2022-09-04T21:24:07.983Z,101252.50
2022-09-04T21:27:15.918Z,101260.31
2022-09-04T21:30:02.740Z,101252.97
2022-09-04T21:33:24.622Z,101257.63
2022-09-04T21:36:25.365Z,101247.53
2022-09-04T21:38:56.937Z,101259.81
2022-09-04T21:41:50.946Z,101260.28
2022-09-04T21:44:43.590Z,101262.31
2022-09-04T21:47:26.383Z,101259.78
2022-09-04T21:50:23.050Z,101262.28
2022-09-04T21:53:16.405Z,101263.47
2022-09-04T22:00:17.454Z,101262.31
2022-09-04T22:02:35.904Z,101254.81
2022-09-04T22:02:37.502Z,101256.84
2022-09-04T22:05:13.222Z,101259.81
2022-09-04T22:12:11.751Z,101250.63
2022-09-04T22:13:39.582Z,101259.22
2022-09-04T22:14:38.068Z,101256.87
2022-09-04T22:17:18.782Z,101257.63
2022-09-04T22:20:25.165Z,101248.09
2022-09-04T22:23:12.793Z,101250.44
2022-09-04T22:26:09.185Z,101251.88
2022-09-04T22:29:23.788Z,101252.50
2022-09-04T22:32:33.678Z,101254.84
2022-09-04T22:35:36.088Z,101255.75
2022-09-04T22:38:16.467Z,101244.38
2022-09-04T22:41:00.446Z,101248.47
2022-09-04T22:43:29.647Z,101242.66
2022-09-04T22:46:33.341Z,101241.75
2022-09-04T22:49:19.655Z,101241.28
2022-09-04T22:51:59.426Z,101249.84
2022-09-04T22:55:13.082Z,101246.41
2022-09-04T22:57:51.122Z,101242.03
2022-09-04T23:00:23.428Z,101230.66
2022-09-04T23:03:09.830Z,101241.75
2022-09-04T23:08:03.021Z,101241.09
2022-09-04T23:13:49.325Z,101244.84
2022-09-04T23:13:59.443Z,101247.97
2022-09-04T23:15:21.222Z,101256.56
2022-09-04T23:23:05.138Z,101249.25
2022-09-04T23:26:33.703Z,101255.78
2022-09-04T23:26:47.560Z,101255.91
2022-09-04T23:27:28.397Z,101259.38
2022-09-04T23:30:04.386Z,101253.91
2022-09-04T23:32:44.361Z,101253.56
2022-09-04T23:35:27.214Z,101247.66
2022-09-04T23:38:04.462Z,101251.28
2022-09-04T23:40:42.118Z,101248.62
2022-09-04T23:43:19.022Z,101251.25
2022-09-04T23:46:08.249Z,101263.25
2022-09-04T23:48:45.147Z,101257.00
2022-09-04T23:51:21.421Z,101257.47
2022-09-04T23:54:24.612Z,101253.87
2022-09-04T23:57:08.517Z,101257.47
2022-09-04T23:59:56.692Z,101252.97
